createdAt,value
2023-03-13T00:01:04.874Z,20.67
2023-03-13T00:03:34.091Z,20.33
2023-03-13T00:06:01.993Z,18.70
2023-03-13T00:08:31.078Z,18.43
2023-03-13T00:10:59.054Z,18.93
2023-03-13T00:13:26.888Z,19.27
2023-03-13T00:16:01.942Z,18.53
2023-03-13T00:18:29.825Z,21.27
2023-03-13T00:21:03.320Z,19.97
2023-03-13T00:23:31.493Z,22.73
2023-03-13T00:25:59.990Z,21.23
2023-03-13T00:28:32.824Z,19.90
2023-03-13T00:31:05.381Z,20.17
2023-03-13T00:33:34.327Z,19.17
2023-03-13T00:36:05.675Z,21.03
2023-03-13T00:38:33.788Z,23.83
2023-03-13T00:41:02.860Z,24.87
2023-03-13T00:43:30.927Z,18.80
2023-03-13T00:45:59.087Z,19.77
2023-03-13T00:48:27.168Z,19.50
2023-03-13T00:50:55.273Z,18.40
2023-03-13T00:53:24.755Z,18.63
2023-03-13T00:55:54.610Z,17.70
2023-03-13T00:58:23.177Z,17.93
2023-03-13T01:00:51.112Z,17.90
2023-03-13T01:03:19.732Z,16.97
2023-03-13T01:05:56.781Z,16.40
2023-03-13T01:08:26.083Z,16.27
2023-03-13T01:10:59.432Z,17.00
2023-03-13T01:13:27.702Z,17.80
2023-03-13T01:15:55.708Z,16.87
2023-03-13T01:18:23.968Z,16.73
2023-03-13T01:20:51.871Z,18.93
2023-03-13T01:23:19.872Z,18.37
2023-03-13T01:25:49.117Z,18.00
2023-03-13T01:28:16.964Z,17.03
2023-03-13T01:30:44.873Z,15.40
2023-03-13T01:33:12.775Z,14.97
2023-03-13T01:35:40.743Z,14.70
2023-03-13T01:38:08.801Z,14.63
2023-03-13T01:40:41.218Z,15.13
2023-03-13T01:43:26.972Z,14.43
2023-03-13T01:46:13.749Z,16.20
2023-03-13T01:48:46.213Z,15.20
2023-03-13T01:51:17.910Z,14.10
2023-03-13T01:53:48.534Z,13.87
2023-03-13T01:56:21.591Z,14.50
2023-03-13T01:58:53.514Z,15.37
2023-03-13T02:01:21.976Z,13.80
2023-03-13T02:03:51.433Z,14.07
2023-03-13T02:06:19.825Z,14.07
2023-03-13T02:08:53.210Z,12.40
2023-03-13T02:11:34.019Z,12.37
2023-03-13T02:14:04.684Z,13.13
2023-03-13T02:16:35.217Z,12.60
2023-03-13T02:19:07.627Z,12.77
2023-03-13T02:21:42.787Z,13.60
2023-03-13T02:24:18.819Z,12.70
2023-03-13T02:26:48.259Z,12.43
2023-03-13T02:29:18.543Z,13.00
2023-03-13T02:31:48.269Z,14.93
2023-03-13T02:34:19.372Z,12.23
2023-03-13T02:36:48.971Z,11.87
2023-03-13T02:39:20.458Z,13.40
2023-03-13T02:41:51.482Z,14.00
2023-03-13T02:44:19.544Z,11.63
2023-03-13T02:46:50.380Z,13.13
2023-03-13T02:49:22.940Z,11.47
2023-03-13T02:51:51.715Z,11.57
2023-03-13T02:54:22.354Z,12.93
2023-03-13T02:56:56.465Z,11.13
2023-03-13T02:59:24.426Z,13.93
2023-03-13T03:01:52.803Z,11.17
2023-03-13T03:04:22.133Z,13.57
2023-03-13T03:06:50.924Z,12.90
2023-03-13T03:09:19.801Z,11.57
2023-03-13T03:11:47.913Z,11.00
2023-03-13T03:14:17.745Z,11.90
2023-03-13T03:16:46.130Z,10.93
2023-03-13T03:19:14.266Z,11.90
2023-03-13T03:21:42.217Z,11.33
2023-03-13T03:24:10.301Z,11.23
2023-03-13T03:26:38.212Z,10.43
2023-03-13T03:29:07.855Z,11.40
2023-03-13T03:31:37.104Z,9.47
2023-03-13T03:34:05.213Z,9.67
2023-03-13T03:36:33.085Z,10.27
2023-03-13T03:39:00.918Z,8.93
2023-03-13T03:41:28.913Z,11.03
2023-03-13T03:43:56.874Z,10.63
2023-03-13T03:46:25.571Z,9.43
2023-03-13T03:48:54.829Z,9.97
2023-03-13T03:51:23.300Z,9.63
2023-03-13T03:53:51.145Z,9.10
2023-03-13T03:56:19.010Z,9.57
2023-03-13T03:58:47.066Z,9.60
2023-03-13T04:01:14.922Z,8.57
2023-03-13T04:03:42.853Z,10.00
2023-03-13T04:06:12.128Z,9.70
2023-03-13T04:08:42.452Z,10.07
2023-03-13T04:11:10.429Z,12.30
2023-03-13T04:13:38.296Z,9.83
2023-03-13T04:16:09.282Z,10.07
2023-03-13T04:18:37.216Z,10.97
2023-03-13T04:21:06.761Z,9.57
2023-03-13T04:23:36.017Z,10.13
2023-03-13T04:26:03.853Z,11.57
2023-03-13T04:28:31.761Z,9.60
2023-03-13T04:31:01.313Z,9.40
2023-03-13T04:33:30.486Z,9.33
2023-03-13T04:35:58.425Z,9.67
2023-03-13T04:38:26.342Z,10.70
2023-03-13T04:40:55.640Z,9.70
2023-03-13T04:43:23.498Z,10.43
2023-03-13T04:45:54.626Z,8.50
2023-03-13T04:48:22.655Z,10.03
2023-03-13T04:50:50.871Z,9.87
2023-03-13T04:53:19.521Z,8.90
2023-03-13T04:55:49.874Z,8.60
2023-03-13T04:58:19.323Z,8.70
2023-03-13T05:00:47.177Z,10.60
2023-03-13T05:03:15.227Z,8.57
2023-03-13T05:05:43.093Z,8.90
2023-03-13T05:08:11.368Z,7.70
2023-03-13T05:10:39.224Z,9.07
2023-03-13T05:13:07.102Z,7.67
2023-03-13T05:15:36.345Z,7.97
2023-03-13T05:18:04.483Z,7.90
2023-03-13T05:20:32.305Z,9.57
2023-03-13T05:23:00.258Z,8.17
2023-03-13T05:25:28.198Z,9.57
2023-03-13T05:27:56.038Z,9.50
2023-03-13T05:30:23.948Z,8.50
2023-03-13T05:32:53.214Z,7.43
2023-03-13T05:35:21.301Z,8.53
2023-03-13T05:37:49.182Z,8.17
2023-03-13T05:40:17.189Z,8.00
2023-03-13T05:42:46.274Z,7.30
2023-03-13T05:45:14.448Z,7.20
2023-03-13T05:47:42.997Z,8.53
2023-03-13T05:50:12.772Z,6.20
2023-03-13T05:52:40.725Z,7.87
2023-03-13T05:55:09.124Z,10.07
2023-03-13T05:57:36.963Z,7.57
2023-03-13T06:00:05.414Z,9.07
2023-03-13T06:02:33.279Z,7.67
2023-03-13T06:05:01.166Z,7.27
2023-03-13T06:07:30.487Z,8.17
2023-03-13T06:09:58.367Z,7.80
2023-03-13T06:12:26.334Z,8.30
2023-03-13T06:14:54.220Z,7.80
2023-03-13T06:17:22.169Z,6.37
2023-03-13T06:19:50.035Z,8.73
2023-03-13T06:22:18.540Z,9.00
2023-03-13T06:24:49.686Z,7.20
2023-03-13T06:27:17.814Z,8.63
2023-03-13T06:29:45.842Z,7.03
2023-03-13T06:32:15.651Z,7.87
2023-03-13T06:34:43.564Z,6.60
2023-03-13T06:37:11.534Z,6.70
2023-03-13T06:39:39.444Z,7.27
2023-03-13T06:42:09.237Z,8.60
2023-03-13T06:44:37.087Z,7.90
2023-03-13T06:47:05.172Z,6.57
2023-03-13T06:49:33.209Z,6.50
2023-03-13T06:52:01.197Z,6.93
2023-03-13T06:54:29.072Z,6.83
2023-03-13T06:56:57.127Z,7.67
2023-03-13T06:59:26.478Z,6.97
2023-03-13T07:01:54.324Z,7.73
2023-03-13T07:04:22.238Z,6.63
2023-03-13T07:06:50.170Z,7.10
2023-03-13T07:09:20.000Z,6.13
2023-03-13T07:11:47.903Z,8.53
2023-03-13T07:14:17.664Z,6.23
2023-03-13T07:16:47.701Z,6.13
2023-03-13T07:19:16.306Z,6.10
2023-03-13T07:21:44.538Z,7.00
2023-03-13T07:24:12.499Z,5.03
2023-03-13T07:26:42.677Z,7.10
2023-03-13T07:29:17.025Z,6.10
2023-03-13T07:31:44.889Z,8.03
2023-03-13T07:34:14.180Z,7.37
2023-03-13T07:36:42.351Z,6.30
2023-03-13T07:39:10.193Z,6.30
2023-03-13T07:41:39.064Z,5.77
2023-03-13T07:44:07.878Z,6.40
2023-03-13T07:46:35.812Z,5.47
2023-03-13T07:49:03.989Z,6.77
2023-03-13T07:51:42.920Z,5.23
2023-03-13T07:54:11.946Z,4.67
2023-03-13T07:56:40.070Z,4.93
2023-03-13T07:59:08.020Z,4.67
2023-03-13T08:01:36.115Z,5.33
2023-03-13T08:04:04.222Z,5.77
2023-03-13T08:06:35.604Z,4.80
2023-03-13T08:09:03.886Z,5.77
2023-03-13T08:11:31.751Z,4.40
2023-03-13T08:13:59.902Z,5.00
2023-03-13T08:16:29.590Z,4.57
2023-03-13T08:18:59.431Z,4.13
2023-03-13T08:21:29.090Z,4.33
2023-03-13T08:24:00.127Z,4.47
2023-03-13T08:26:30.393Z,4.17
2023-03-13T08:29:00.685Z,4.30
2023-03-13T08:31:30.246Z,4.60
2023-03-13T08:33:58.327Z,4.23
2023-03-13T08:36:27.974Z,4.30
2023-03-13T08:38:59.676Z,4.30
2023-03-13T08:41:29.676Z,4.70
2023-03-13T08:43:58.349Z,3.60
2023-03-13T08:46:26.818Z,4.03
2023-03-13T08:48:56.152Z,4.13
2023-03-13T08:51:25.712Z,4.60
2023-03-13T08:53:56.058Z,4.70
2023-03-13T08:56:28.059Z,4.50
2023-03-13T08:58:57.697Z,4.10
2023-03-13T09:01:27.542Z,4.20
2023-03-13T09:03:55.809Z,3.60
2023-03-13T09:06:23.979Z,3.87
2023-03-13T09:08:51.807Z,3.63
2023-03-13T09:11:21.736Z,4.90
2023-03-13T09:13:52.206Z,4.23
2023-03-13T09:16:22.149Z,3.37
2023-03-13T09:18:51.248Z,4.10
2023-03-13T09:21:21.810Z,4.80
2023-03-13T09:23:50.170Z,4.73
2023-03-13T09:26:19.978Z,2.97
2023-03-13T09:28:50.339Z,3.00
2023-03-13T09:31:20.833Z,3.93
2023-03-13T09:33:49.916Z,3.67
2023-03-13T09:36:21.360Z,3.27
2023-03-13T09:38:50.504Z,4.00
2023-03-13T09:41:28.478Z,3.50
2023-03-13T09:44:04.636Z,4.30
2023-03-13T09:46:40.960Z,4.77
2023-03-13T09:49:18.417Z,5.17
2023-03-13T09:51:51.925Z,4.37
2023-03-13T09:54:26.093Z,3.90
2023-03-13T09:56:57.677Z,4.67
2023-03-13T09:59:34.240Z,4.53
2023-03-13T10:02:05.554Z,3.80
2023-03-13T10:04:41.705Z,4.43
2023-03-13T10:07:12.388Z,4.33
2023-03-13T10:09:41.605Z,4.40
2023-03-13T10:12:15.284Z,5.43
2023-03-13T10:14:55.181Z,4.20
2023-03-13T10:17:32.353Z,4.33
2023-03-13T10:20:09.182Z,5.00
2023-03-13T10:22:37.615Z,3.70
2023-03-13T10:25:10.871Z,4.13
2023-03-13T10:27:46.107Z,4.10
2023-03-13T10:30:25.342Z,3.57
2023-03-13T10:32:58.803Z,2.90
2023-03-13T10:35:33.889Z,3.40
2023-03-13T10:38:05.673Z,2.97
2023-03-13T10:40:34.017Z,3.23
2023-03-13T10:43:04.681Z,3.37
2023-03-13T10:45:36.746Z,3.10
2023-03-13T10:48:13.484Z,2.90
2023-03-13T10:50:44.780Z,2.67
2023-03-13T10:53:24.738Z,3.97
2023-03-13T10:55:55.508Z,2.93
2023-03-13T10:58:29.207Z,2.50
2023-03-13T11:01:15.788Z,2.83
2023-03-13T11:03:44.752Z,2.67
2023-03-13T11:06:26.771Z,2.57
2023-03-13T11:09:01.088Z,2.60
2023-03-13T11:11:31.147Z,2.83
2023-03-13T11:14:10.814Z,3.30
2023-03-13T11:16:47.351Z,3.00
2023-03-13T11:19:33.094Z,3.97
2023-03-13T11:22:14.159Z,3.13
2023-03-13T11:24:47.319Z,3.57
2023-03-13T11:27:24.864Z,2.30
2023-03-13T11:30:02.829Z,2.80
2023-03-13T11:32:42.913Z,4.30
2023-03-13T11:35:22.105Z,3.90
2023-03-13T11:37:54.470Z,4.03
2023-03-13T11:40:29.616Z,3.77
2023-03-13T11:43:25.534Z,3.30
2023-03-13T11:46:09.195Z,3.63
2023-03-13T11:49:10.222Z,3.53
2023-03-13T11:51:50.519Z,3.20
2023-03-13T11:54:38.949Z,3.63
2023-03-13T11:57:13.370Z,3.73
2023-03-13T11:59:48.488Z,3.30
2023-03-13T12:02:22.324Z,3.40
2023-03-13T12:04:56.917Z,2.73
2023-03-13T12:07:29.884Z,3.70
2023-03-13T12:10:00.801Z,3.67
2023-03-13T12:12:38.796Z,3.85
2023-03-13T12:15:19.264Z,4.00
2023-03-13T12:17:51.824Z,3.07
2023-03-13T12:20:26.743Z,3.00
2023-03-13T12:23:05.274Z,3.10
2023-03-13T12:25:39.673Z,5.23
2023-03-13T12:28:24.171Z,2.87
2023-03-13T12:31:01.735Z,3.20
2023-03-13T12:33:36.015Z,2.93
2023-03-13T12:36:12.266Z,4.10
2023-03-13T12:38:45.147Z,3.30
2023-03-13T12:41:21.779Z,2.80
2023-03-13T12:44:07.289Z,2.00
2023-03-13T12:46:40.277Z,3.27
2023-03-13T12:49:29.858Z,1.97
2023-03-13T12:52:15.740Z,2.40
2023-03-13T12:55:20.352Z,3.90
2023-03-13T12:58:14.963Z,2.17
2023-03-13T13:00:45.986Z,2.63
2023-03-13T13:03:27.219Z,1.90
2023-03-13T13:06:01.247Z,1.80
2023-03-13T13:08:36.013Z,2.37
2023-03-13T13:11:41.508Z,2.80
2023-03-13T13:14:51.009Z,1.20
2023-03-13T13:17:25.663Z,3.00
2023-03-13T13:19:53.615Z,2.23
2023-03-13T13:22:47.243Z,2.80
2023-03-13T13:25:36.220Z,1.60
2023-03-13T13:28:27.457Z,1.53
2023-03-13T13:30:56.817Z,2.23
2023-03-13T13:33:39.081Z,2.17
2023-03-13T13:36:32.120Z,1.90
2023-03-13T13:39:00.645Z,1.83
2023-03-13T13:41:37.844Z,2.87
2023-03-13T13:44:28.504Z,1.83
2023-03-13T13:46:58.893Z,2.13
2023-03-13T13:49:34.530Z,2.03
2023-03-13T13:52:33.087Z,2.73
2023-03-13T13:55:01.298Z,1.60
2023-03-13T13:57:33.650Z,3.13
2023-03-13T14:00:16.207Z,2.00
2023-03-13T14:02:51.271Z,2.03
2023-03-13T14:05:22.591Z,1.93
2023-03-13T14:07:59.099Z,3.13
2023-03-13T14:10:35.060Z,3.53
2023-03-13T14:13:12.553Z,3.67
2023-03-13T14:15:43.989Z,2.47
2023-03-13T14:18:16.115Z,2.60
2023-03-13T14:20:55.205Z,3.00
2023-03-13T14:23:42.285Z,2.47
2023-03-13T14:26:12.893Z,2.87
2023-03-13T14:28:45.009Z,2.43
2023-03-13T14:31:23.365Z,2.30
2023-03-13T14:33:51.605Z,2.40
2023-03-13T14:36:19.624Z,2.87
2023-03-13T14:38:55.198Z,3.03
2023-03-13T14:41:32.073Z,2.70
2023-03-13T14:44:06.670Z,2.17
2023-03-13T14:46:36.958Z,2.97
2023-03-13T14:49:16.098Z,3.30
2023-03-13T14:51:44.148Z,2.80
2023-03-13T14:54:27.738Z,3.63
2023-03-13T14:57:07.718Z,4.60
2023-03-13T14:59:37.578Z,4.13
2023-03-13T15:02:18.371Z,3.20
2023-03-13T15:04:53.661Z,2.43
2023-03-13T15:07:22.314Z,2.93
2023-03-13T15:09:51.255Z,2.50
2023-03-13T15:12:21.827Z,2.63
2023-03-13T15:14:52.788Z,2.43
2023-03-13T15:17:22.435Z,3.33
2023-03-13T15:19:54.927Z,2.53
2023-03-13T15:22:28.312Z,3.60
2023-03-13T15:25:06.047Z,4.00
2023-03-13T15:27:35.466Z,3.20
2023-03-13T15:30:05.519Z,2.87
2023-03-13T15:32:37.159Z,2.70
2023-03-13T15:35:22.537Z,3.10
2023-03-13T15:37:50.661Z,2.60
2023-03-13T15:40:19.976Z,2.43
2023-03-13T15:42:47.966Z,2.90
2023-03-13T15:45:17.306Z,2.37
2023-03-13T15:47:45.425Z,2.47
2023-03-13T15:50:14.447Z,2.57
2023-03-13T15:52:42.310Z,2.43
2023-03-13T15:55:12.004Z,3.03
2023-03-13T15:57:43.586Z,3.33
2023-03-13T16:00:22.708Z,3.73
2023-03-13T16:02:50.913Z,3.07
2023-03-13T16:05:19.480Z,3.93
2023-03-13T16:07:47.380Z,4.00
2023-03-13T16:10:18.563Z,2.50
2023-03-13T16:12:46.404Z,3.20
2023-03-13T16:15:14.534Z,2.47
2023-03-13T16:17:44.238Z,2.57
2023-03-13T16:20:16.977Z,3.60
2023-03-13T16:22:44.999Z,2.33
2023-03-13T16:25:13.158Z,2.93
2023-03-13T16:27:42.009Z,2.90
2023-03-13T16:30:17.240Z,2.87
2023-03-13T16:32:46.936Z,3.27
2023-03-13T16:35:15.151Z,3.33
2023-03-13T16:37:43.028Z,3.13
2023-03-13T16:40:17.945Z,2.77
2023-03-13T16:42:46.296Z,2.83
2023-03-13T16:45:14.724Z,2.33
2023-03-13T16:47:43.654Z,3.13
2023-03-13T16:50:22.806Z,3.30
2023-03-13T16:52:51.463Z,2.10
2023-03-13T16:55:19.830Z,2.80
2023-03-13T16:57:47.914Z,4.17
2023-03-13T17:00:18.533Z,2.53
2023-03-13T17:02:46.666Z,2.50
2023-03-13T17:05:16.012Z,2.67
2023-03-13T17:07:47.173Z,3.60
2023-03-13T17:10:21.182Z,3.93
2023-03-13T17:12:49.431Z,3.43
2023-03-13T17:15:17.852Z,3.63
2023-03-13T17:17:51.468Z,3.23
2023-03-13T17:20:21.089Z,3.43
2023-03-13T17:22:50.346Z,3.20
2023-03-13T17:25:18.608Z,3.50
2023-03-13T17:27:48.573Z,3.10
2023-03-13T17:30:20.990Z,5.13
2023-03-13T17:32:50.272Z,4.07
2023-03-13T17:35:19.326Z,3.27
2023-03-13T17:37:47.741Z,3.10
2023-03-13T17:40:22.210Z,3.10
2023-03-13T17:42:50.301Z,4.30
2023-03-13T17:45:19.212Z,3.83
2023-03-13T17:47:49.198Z,3.60
2023-03-13T17:50:19.606Z,2.57
2023-03-13T17:52:47.520Z,3.77
2023-03-13T17:55:15.762Z,3.53
2023-03-13T17:57:45.044Z,3.03
2023-03-13T18:00:21.979Z,3.17
2023-03-13T18:02:50.425Z,3.20
2023-03-13T18:05:19.538Z,3.50
2023-03-13T18:07:48.314Z,4.53
2023-03-13T18:10:21.659Z,3.43
2023-03-13T18:12:51.684Z,3.37
2023-03-13T18:15:19.797Z,4.50
2023-03-13T18:17:47.845Z,4.00
2023-03-13T18:20:18.011Z,3.80
2023-03-13T18:22:46.882Z,4.00
2023-03-13T18:25:15.094Z,3.83
2023-03-13T18:27:43.059Z,3.63
2023-03-13T18:30:21.622Z,3.80
2023-03-13T18:32:49.850Z,4.33
2023-03-13T18:35:18.521Z,3.30
2023-03-13T18:37:48.154Z,3.40
2023-03-13T18:40:19.013Z,4.50
2023-03-13T18:42:46.987Z,3.83
2023-03-13T18:45:16.559Z,4.10
2023-03-13T18:47:48.176Z,4.03
2023-03-13T18:50:20.402Z,3.90
2023-03-13T18:52:48.311Z,4.50
2023-03-13T18:55:16.314Z,5.20
2023-03-13T18:57:44.220Z,4.23
2023-03-13T19:00:17.766Z,3.43
2023-03-13T19:02:47.145Z,3.20
2023-03-13T19:05:15.442Z,4.30
2023-03-13T19:07:43.421Z,7.67
2023-03-13T19:10:20.712Z,4.00
2023-03-13T19:12:48.752Z,4.57
2023-03-13T19:15:16.926Z,3.93
2023-03-13T19:17:46.865Z,3.70
2023-03-13T19:20:16.417Z,4.53
2023-03-13T19:22:44.906Z,6.00
2023-03-13T19:25:14.138Z,6.67
2023-03-13T19:27:42.462Z,5.13
2023-03-13T19:30:18.756Z,3.10
2023-03-13T19:32:48.363Z,3.63
2023-03-13T19:35:18.984Z,3.90
2023-03-13T19:37:47.596Z,3.40
2023-03-13T19:40:19.676Z,3.50
2023-03-13T19:42:47.587Z,3.03
2023-03-13T19:45:17.361Z,3.43
2023-03-13T19:47:45.634Z,2.77
2023-03-13T19:50:19.608Z,2.83
2023-03-13T19:52:47.806Z,3.00
2023-03-13T19:55:16.067Z,3.53
2023-03-13T19:57:43.960Z,2.80
2023-03-13T20:00:19.658Z,2.50
2023-03-13T20:02:47.707Z,3.30
2023-03-13T20:05:17.571Z,2.60
2023-03-13T20:07:45.827Z,2.97
2023-03-13T20:10:13.923Z,2.60
2023-03-13T20:12:42.180Z,3.47
2023-03-13T20:15:11.302Z,3.10
2023-03-13T20:17:39.286Z,3.77
2023-03-13T20:20:08.553Z,3.80
2023-03-13T20:22:37.843Z,3.37
2023-03-13T20:25:06.356Z,2.70
2023-03-13T20:27:34.217Z,2.70
2023-03-13T20:30:02.199Z,3.03
2023-03-13T20:32:30.273Z,2.57
2023-03-13T20:34:58.184Z,3.40
2023-03-13T20:37:26.208Z,2.50
2023-03-13T20:39:55.481Z,3.60
2023-03-13T20:42:23.381Z,2.37
2023-03-13T20:44:51.232Z,2.40
2023-03-13T20:47:19.609Z,3.00
2023-03-13T20:49:47.574Z,3.47
2023-03-13T20:52:15.436Z,3.20
2023-03-13T20:54:43.405Z,2.83
2023-03-13T20:57:12.653Z,3.50
2023-03-13T20:59:41.206Z,3.23
2023-03-13T21:02:09.906Z,2.90
2023-03-13T21:04:37.978Z,3.40
2023-03-13T21:07:05.938Z,3.23
2023-03-13T21:09:34.678Z,3.80
2023-03-13T21:12:02.978Z,3.63
2023-03-13T21:14:33.431Z,3.47
2023-03-13T21:17:02.581Z,3.37
2023-03-13T21:19:30.660Z,3.57
2023-03-13T21:21:58.811Z,3.90
2023-03-13T21:24:26.655Z,4.00
2023-03-13T21:26:55.228Z,3.30
2023-03-13T21:29:23.184Z,3.30
2023-03-13T21:31:52.627Z,3.63
2023-03-13T21:34:20.713Z,3.43
2023-03-13T21:36:48.613Z,3.77
2023-03-13T21:39:16.522Z,4.10
2023-03-13T21:41:44.441Z,4.03
2023-03-13T21:44:12.792Z,3.90
2023-03-13T21:46:40.729Z,4.53
2023-03-13T21:49:09.992Z,3.97
2023-03-13T21:51:37.849Z,5.37
2023-03-13T21:54:05.999Z,4.33
2023-03-13T21:56:33.852Z,4.50
2023-03-13T21:59:01.852Z,3.60
2023-03-13T22:01:29.743Z,3.30
2023-03-13T22:03:57.672Z,3.33
2023-03-13T22:06:27.230Z,3.60
2023-03-13T22:08:55.166Z,4.07
2023-03-13T22:11:23.066Z,4.43
2023-03-13T22:13:51.572Z,3.27
2023-03-13T22:16:21.089Z,3.80
2023-03-13T22:18:49.058Z,5.40
2023-03-13T22:21:17.508Z,4.60
2023-03-13T22:23:47.110Z,5.10
2023-03-13T22:26:15.563Z,4.23
2023-03-13T22:28:43.392Z,3.80
2023-03-13T22:31:12.356Z,2.77
2023-03-13T22:33:40.272Z,2.80
2023-03-13T22:36:10.096Z,2.00
2023-03-13T22:38:39.958Z,2.50
2023-03-13T22:41:12.216Z,2.13
2023-03-13T22:43:40.064Z,1.73
2023-03-13T22:46:08.417Z,1.70
2023-03-13T22:48:37.573Z,1.40
2023-03-13T22:51:08.809Z,1.77
2023-03-13T22:53:39.299Z,2.07
2023-03-13T22:56:11.010Z,1.80
2023-03-13T22:58:39.751Z,1.70
2023-03-13T23:01:08.161Z,1.70
2023-03-13T23:03:37.378Z,1.77
2023-03-13T23:06:07.370Z,1.40
2023-03-13T23:08:35.563Z,0.80
2023-03-13T23:11:04.826Z,0.93
2023-03-13T23:13:34.303Z,1.43
2023-03-13T23:16:02.228Z,0.87
2023-03-13T23:18:30.076Z,1.70
2023-03-13T23:20:57.972Z,1.53
2023-03-13T23:23:25.956Z,0.73
2023-03-13T23:25:53.796Z,2.63
2023-03-13T23:28:21.704Z,1.90
2023-03-13T23:30:50.923Z,1.30
2023-03-13T23:33:18.908Z,1.70
2023-03-13T23:35:46.901Z,1.03
2023-03-13T23:38:18.458Z,1.00
2023-03-13T23:40:46.373Z,1.00
2023-03-13T23:43:14.325Z,0.77
2023-03-13T23:45:42.184Z,1.17
2023-03-13T23:48:11.450Z,2.10
2023-03-13T23:50:39.334Z,3.80
2023-03-13T23:53:07.355Z,2.00
2023-03-13T23:55:35.224Z,1.43
2023-03-13T23:58:03.114Z,1.00
